createdAt,value
2023-05-03T00:01:48.401Z,41.57
2023-05-03T00:02:58.101Z,41.55
2023-05-03T00:04:07.427Z,41.58
2023-05-03T00:05:17.255Z,41.67
2023-05-03T00:07:45.593Z,41.75
2023-05-03T00:08:54.664Z,41.83
2023-05-03T00:11:21.444Z,41.68
2023-05-03T00:12:30.731Z,41.63
2023-05-03T00:13:44.143Z,41.79
2023-05-03T00:16:11.120Z,41.81
2023-05-03T00:18:36.598Z,42.12
2023-05-03T00:21:01.721Z,42.28
2023-05-03T00:23:29.426Z,42.29
2023-05-03T00:24:40.017Z,42.28
2023-05-03T00:27:13.055Z,42.44
2023-05-03T00:29:38.172Z,42.50
2023-05-03T00:32:23.666Z,42.21
2023-05-03T00:33:33.460Z,42.26
2023-05-03T00:34:43.193Z,42.39
2023-05-03T00:35:51.854Z,42.37
2023-05-03T00:38:18.298Z,42.31
2023-05-03T00:40:52.200Z,42.40
2023-05-03T00:42:04.581Z,42.58
2023-05-03T00:43:15.191Z,42.61
2023-05-03T00:45:40.247Z,42.60
2023-05-03T00:48:06.779Z,42.66
2023-05-03T00:50:31.832Z,42.41
2023-05-03T00:52:59.271Z,42.50
2023-05-03T00:54:10.366Z,42.49
2023-05-03T00:56:47.899Z,42.47
2023-05-03T00:57:48.763Z,42.40
2023-05-03T00:59:00.852Z,42.51
2023-05-03T01:01:29.995Z,42.73
2023-05-03T01:02:40.095Z,42.65
2023-05-03T01:05:07.788Z,42.45
2023-05-03T01:08:03.531Z,42.28
2023-05-03T01:10:51.094Z,42.14
2023-05-03T01:13:51.756Z,42.18
2023-05-03T01:18:10.156Z,42.32
2023-05-03T01:20:53.120Z,42.35
2023-05-03T01:22:33.054Z,42.36
2023-05-03T01:25:29.388Z,43.33
2023-05-03T01:27:55.062Z,43.81
2023-05-03T01:29:04.723Z,43.88
2023-05-03T01:30:14.450Z,44.07
2023-05-03T01:33:25.860Z,44.39
2023-05-03T01:36:03.824Z,44.65
2023-05-03T01:37:14.901Z,44.69
2023-05-03T01:38:24.740Z,44.94
2023-05-03T01:41:14.589Z,45.09
2023-05-03T01:42:25.209Z,45.13
2023-05-03T01:43:36.103Z,44.92
2023-05-03T01:44:48.868Z,44.77
2023-05-03T01:45:58.557Z,44.69
2023-05-03T01:48:26.122Z,44.52
2023-05-03T01:49:36.277Z,44.37
2023-05-03T01:52:02.099Z,44.31
2023-05-03T01:53:11.697Z,44.37
2023-05-03T01:54:22.527Z,44.32
2023-05-03T01:55:30.857Z,44.39
2023-05-03T01:56:41.668Z,44.58
2023-05-03T01:59:05.431Z,44.83
2023-05-03T02:01:31.471Z,45.35
2023-05-03T02:03:56.058Z,45.21
2023-05-03T02:05:06.564Z,45.09
2023-05-03T02:06:17.860Z,45.28
2023-05-03T02:07:27.282Z,45.30
2023-05-03T02:09:52.802Z,45.24
2023-05-03T02:12:16.984Z,45.51
2023-05-03T02:14:41.769Z,45.77
2023-05-03T02:15:52.219Z,45.89
2023-05-03T02:17:02.981Z,45.95
2023-05-03T02:19:28.616Z,46.34
2023-05-03T02:20:39.849Z,46.17
2023-05-03T02:21:49.694Z,46.14
2023-05-03T02:22:59.946Z,46.25
2023-05-03T02:25:25.759Z,46.48
2023-05-03T02:27:50.610Z,46.48
2023-05-03T02:29:00.255Z,46.27
2023-05-03T02:31:27.518Z,46.01
2023-05-03T02:33:55.769Z,46.14
2023-05-03T02:36:21.419Z,46.16
2023-05-03T02:38:48.158Z,45.83
2023-05-03T02:41:15.005Z,45.98
2023-05-03T02:43:40.101Z,45.71
2023-05-03T02:44:49.214Z,45.69
2023-05-03T02:45:59.279Z,45.75
2023-05-03T02:48:26.411Z,46.19
2023-05-03T02:49:36.241Z,46.22
2023-05-03T02:52:03.871Z,46.14
2023-05-03T02:53:12.480Z,46.01
2023-05-03T02:55:39.761Z,45.72
2023-05-03T02:56:48.377Z,45.82
2023-05-03T02:57:56.959Z,45.75
2023-05-03T02:59:07.447Z,45.52
2023-05-03T03:01:34.581Z,45.23
2023-05-03T03:02:44.350Z,45.16
2023-05-03T03:05:10.346Z,44.96
2023-05-03T03:07:40.769Z,44.93
2023-05-03T03:10:06.834Z,44.96
2023-05-03T03:11:16.491Z,44.50
2023-05-03T03:13:44.264Z,44.38
2023-05-03T03:16:28.776Z,43.76
2023-05-03T03:18:53.985Z,43.54
2023-05-03T03:20:05.920Z,43.45
2023-05-03T03:22:28.381Z,42.67
2023-05-03T03:24:53.738Z,42.38
2023-05-03T03:27:19.046Z,41.46
2023-05-03T03:28:28.201Z,41.16
2023-05-03T03:30:54.120Z,40.91
2023-05-03T03:33:24.391Z,39.80
2023-05-03T03:34:33.876Z,40.08
2023-05-03T03:37:17.761Z,39.74
2023-05-03T03:39:41.885Z,39.81
2023-05-03T03:42:08.628Z,39.80
2023-05-03T03:44:33.243Z,39.42
2023-05-03T03:46:59.566Z,39.19
2023-05-03T03:48:08.457Z,38.96
2023-05-03T03:50:35.781Z,39.01
2023-05-03T03:53:00.830Z,39.09
2023-05-03T03:54:12.149Z,39.22
2023-05-03T03:56:39.160Z,39.50
2023-05-03T03:57:48.310Z,39.51
2023-05-03T04:00:15.111Z,39.61
2023-05-03T04:02:42.507Z,39.87
2023-05-03T04:05:09.765Z,39.62
2023-05-03T04:07:35.408Z,39.90
2023-05-03T04:10:00.633Z,40.09
2023-05-03T04:12:27.032Z,39.92
2023-05-03T04:13:36.873Z,39.84
2023-05-03T04:16:04.616Z,39.96
2023-05-03T04:18:30.160Z,39.75
2023-05-03T04:20:55.129Z,39.65
2023-05-03T04:23:20.320Z,39.72
2023-05-03T04:25:48.044Z,39.61
2023-05-03T04:28:15.671Z,39.85
2023-05-03T04:30:46.785Z,39.96
2023-05-03T04:31:57.080Z,39.90
2023-05-03T04:34:22.561Z,39.45
2023-05-03T04:35:34.119Z,39.62
2023-05-03T04:38:02.829Z,39.39
2023-05-03T04:40:29.144Z,39.10
2023-05-03T04:41:44.906Z,39.20
2023-05-03T04:44:11.677Z,39.05
2023-05-03T04:45:21.472Z,38.67
2023-05-03T04:47:48.313Z,38.42
2023-05-03T04:50:13.064Z,38.17
2023-05-03T04:52:40.702Z,37.91
2023-05-03T04:55:08.445Z,37.25
2023-05-03T04:57:35.007Z,37.44
2023-05-03T05:00:01.049Z,37.27
2023-05-03T05:01:11.593Z,37.00
2023-05-03T05:03:36.494Z,36.08
2023-05-03T05:06:07.673Z,35.81
2023-05-03T05:08:33.751Z,35.35
2023-05-03T05:11:03.340Z,35.28
2023-05-03T05:13:29.975Z,34.74
2023-05-03T05:15:56.828Z,34.67
2023-05-03T05:17:06.699Z,34.06
2023-05-03T05:19:31.878Z,33.96
2023-05-03T05:22:03.902Z,33.92
2023-05-03T05:24:32.495Z,33.49
2023-05-03T05:26:58.989Z,32.96
2023-05-03T05:29:32.811Z,32.66
2023-05-03T05:31:56.870Z,32.67
2023-05-03T05:34:22.124Z,32.39
2023-05-03T05:36:47.813Z,31.90
2023-05-03T05:39:15.199Z,31.08
2023-05-03T05:41:40.299Z,31.40
2023-05-03T05:44:05.801Z,30.84
2023-05-03T05:46:31.506Z,29.93
2023-05-03T05:48:57.411Z,29.26
2023-05-03T05:50:16.757Z,29.24
2023-05-03T05:52:36.956Z,29.42
2023-05-03T05:55:02.139Z,29.17
2023-05-03T05:56:11.332Z,29.27
2023-05-03T05:58:39.424Z,28.20
2023-05-03T06:01:06.635Z,28.13
2023-05-03T06:03:33.651Z,28.08
2023-05-03T06:06:03.922Z,27.37
2023-05-03T06:08:30.314Z,26.56
2023-05-03T06:10:57.475Z,26.69
2023-05-03T06:12:09.354Z,26.64
2023-05-03T06:13:21.142Z,26.46
2023-05-03T06:15:46.168Z,26.73
2023-05-03T06:18:11.049Z,26.87
2023-05-03T06:20:35.827Z,26.21
2023-05-03T06:23:20.170Z,26.58
2023-05-03T06:24:33.070Z,26.76
2023-05-03T06:26:59.517Z,25.93
2023-05-03T06:29:26.887Z,25.68
2023-05-03T06:31:51.870Z,25.40
2023-05-03T06:35:36.199Z,24.66
2023-05-03T06:36:45.932Z,25.18
2023-05-03T06:37:54.930Z,24.75
2023-05-03T06:40:40.820Z,24.77
2023-05-03T06:43:04.822Z,24.71
2023-05-03T06:45:32.024Z,24.78
2023-05-03T06:47:57.971Z,23.96
2023-05-03T06:49:10.018Z,23.99
2023-05-03T06:51:35.169Z,24.19
2023-05-03T06:54:19.578Z,24.07
2023-05-03T06:56:43.806Z,23.58
2023-05-03T06:57:54.761Z,24.38
2023-05-03T06:59:04.457Z,24.58
2023-05-03T07:01:31.786Z,24.29
2023-05-03T07:03:57.455Z,24.19
2023-05-03T07:06:23.765Z,23.80
2023-05-03T07:08:53.855Z,24.27
2023-05-03T07:11:24.616Z,23.24
2023-05-03T07:13:53.732Z,23.10
2023-05-03T07:16:21.964Z,22.94
2023-05-03T07:18:48.058Z,23.21
2023-05-03T07:21:15.205Z,22.85
2023-05-03T07:23:44.797Z,23.22
2023-05-03T07:24:56.098Z,23.04
2023-05-03T07:27:21.062Z,23.56
2023-05-03T07:29:47.340Z,23.43
2023-05-03T07:32:13.179Z,23.76
2023-05-03T07:34:39.169Z,23.76
2023-05-03T07:37:06.082Z,22.72
2023-05-03T07:39:31.217Z,21.94
2023-05-03T07:41:56.368Z,22.70
2023-05-03T07:44:22.000Z,22.95
2023-05-03T07:46:46.198Z,22.13
2023-05-03T07:49:11.850Z,22.36
2023-05-03T07:51:38.885Z,22.73
2023-05-03T07:54:06.400Z,23.34
2023-05-03T07:56:33.984Z,22.69
2023-05-03T07:59:08.586Z,22.37
2023-05-03T08:01:29.092Z,22.10
2023-05-03T08:02:39.228Z,22.05
2023-05-03T08:05:27.293Z,21.82
2023-05-03T08:07:53.453Z,21.64
2023-05-03T08:09:04.256Z,21.33
2023-05-03T08:11:28.544Z,20.96
2023-05-03T08:12:37.634Z,21.44
2023-05-03T08:13:48.116Z,21.35
2023-05-03T08:17:24.488Z,21.28
2023-05-03T08:19:50.262Z,21.12
2023-05-03T08:22:15.891Z,21.08
2023-05-03T08:24:42.008Z,20.71
2023-05-03T08:27:08.622Z,20.36
2023-05-03T08:28:18.404Z,20.61
2023-05-03T08:30:42.604Z,21.26
2023-05-03T08:31:52.312Z,21.64
2023-05-03T08:34:16.473Z,21.60
2023-05-03T08:36:42.146Z,21.27
2023-05-03T08:39:07.278Z,21.38
2023-05-03T08:41:31.736Z,20.97
2023-05-03T08:44:00.170Z,21.21
2023-05-03T08:46:31.537Z,21.14
2023-05-03T08:49:00.793Z,21.29
2023-05-03T08:51:27.616Z,21.37
2023-05-03T08:53:52.622Z,21.48
2023-05-03T08:56:42.134Z,21.84
2023-05-03T08:59:09.771Z,21.73
2023-05-03T09:01:38.480Z,22.24
2023-05-03T09:04:06.688Z,21.79
2023-05-03T09:06:37.225Z,21.72
2023-05-03T09:08:07.654Z,22.33
2023-05-03T09:10:42.196Z,21.84
2023-05-03T09:13:07.212Z,21.86
2023-05-03T09:15:35.862Z,22.01
2023-05-03T09:19:25.611Z,22.63
2023-05-03T09:21:55.293Z,22.05
2023-05-03T09:24:21.553Z,22.53
2023-05-03T09:27:04.101Z,22.51
2023-05-03T09:29:34.020Z,22.64
2023-05-03T09:32:06.074Z,22.38
2023-05-03T09:34:34.195Z,22.59
2023-05-03T09:35:45.260Z,22.71
2023-05-03T09:38:13.800Z,22.84
2023-05-03T09:40:47.680Z,22.99
2023-05-03T09:43:12.823Z,22.93
2023-05-03T09:47:31.771Z,22.56
2023-05-03T09:49:56.497Z,22.90
2023-05-03T09:51:07.632Z,22.71
2023-05-03T09:53:33.983Z,23.37
2023-05-03T09:54:44.557Z,23.66
2023-05-03T09:57:15.277Z,24.12
2023-05-03T09:59:42.458Z,24.68
2023-05-03T10:00:52.840Z,24.66
2023-05-03T10:03:24.140Z,24.93
2023-05-03T10:05:54.088Z,24.61
2023-05-03T10:07:08.886Z,25.19
2023-05-03T10:09:45.909Z,24.86
2023-05-03T10:12:12.405Z,24.47
2023-05-03T10:14:44.293Z,24.77
2023-05-03T10:17:47.242Z,25.03
2023-05-03T10:20:10.847Z,25.39
2023-05-03T10:23:12.899Z,25.62
2023-05-03T10:27:16.699Z,25.57
2023-05-03T10:28:25.738Z,25.64
2023-05-03T10:30:55.179Z,25.54
2023-05-03T10:33:51.678Z,25.54
2023-05-03T10:36:49.660Z,25.49
2023-05-03T10:39:14.601Z,25.37
2023-05-03T10:40:24.148Z,25.04
2023-05-03T10:41:34.241Z,25.17
2023-05-03T10:45:47.218Z,25.16
2023-05-03T10:48:19.746Z,25.39
2023-05-03T10:50:44.528Z,25.20
2023-05-03T10:51:54.100Z,25.63
2023-05-03T10:54:19.066Z,25.78
2023-05-03T10:56:53.767Z,25.79
2023-05-03T10:59:21.408Z,26.11
2023-05-03T11:00:44.495Z,25.90
2023-05-03T11:03:17.402Z,25.76
2023-05-03T11:06:35.388Z,25.96
2023-05-03T11:09:00.061Z,26.19
2023-05-03T11:11:37.473Z,26.23
2023-05-03T11:14:08.054Z,26.36
2023-05-03T11:16:32.277Z,26.32
2023-05-03T11:18:57.360Z,26.01
2023-05-03T11:21:47.093Z,26.04
2023-05-03T11:22:58.804Z,26.09
2023-05-03T11:24:08.615Z,26.26
2023-05-03T11:26:37.198Z,26.32
2023-05-03T11:29:05.591Z,26.13
2023-05-03T11:31:31.357Z,26.19
2023-05-03T11:34:02.135Z,26.16
2023-05-03T11:36:31.056Z,26.29
2023-05-03T11:38:55.548Z,26.82
2023-05-03T11:41:21.684Z,26.54
2023-05-03T11:43:54.989Z,26.62
2023-05-03T11:47:38.565Z,26.58
2023-05-03T11:50:03.748Z,26.40
2023-05-03T11:51:24.993Z,26.44
2023-05-03T11:53:53.459Z,26.51
2023-05-03T11:55:03.617Z,26.70
2023-05-03T11:57:37.973Z,26.69
2023-05-03T12:00:16.910Z,26.97
2023-05-03T12:01:30.689Z,26.68
2023-05-03T12:02:41.373Z,26.58
2023-05-03T12:05:14.348Z,26.80
2023-05-03T12:06:25.967Z,26.82
2023-05-03T12:07:38.320Z,26.86
2023-05-03T12:10:22.780Z,26.47
2023-05-03T12:13:00.636Z,26.55
2023-05-03T12:15:33.884Z,26.66
2023-05-03T12:18:10.774Z,26.70
2023-05-03T12:23:15.126Z,26.86
2023-05-03T12:25:40.534Z,26.74
2023-05-03T12:28:25.732Z,26.59
2023-05-03T12:29:35.550Z,26.61
2023-05-03T12:32:02.674Z,26.75
2023-05-03T12:35:40.256Z,26.74
2023-05-03T12:36:49.298Z,26.94
2023-05-03T12:38:01.710Z,26.86
2023-05-03T12:40:34.028Z,26.50
2023-05-03T12:42:58.570Z,26.44
2023-05-03T12:45:53.130Z,26.60
2023-05-03T12:48:15.343Z,27.08
2023-05-03T12:50:45.182Z,26.79
2023-05-03T12:53:09.988Z,26.71
2023-05-03T12:55:38.921Z,26.89
2023-05-03T13:00:33.732Z,26.79
2023-05-03T13:05:34.326Z,27.16
2023-05-03T13:07:55.970Z,26.82
2023-05-03T13:09:03.507Z,27.06
2023-05-03T13:11:30.427Z,27.11
2023-05-03T13:13:56.303Z,26.87
2023-05-03T13:16:22.352Z,27.04
2023-05-03T13:17:33.650Z,27.06
2023-05-03T13:20:01.563Z,27.20
2023-05-03T13:22:27.057Z,26.65
2023-05-03T13:24:52.443Z,26.88
2023-05-03T13:27:18.353Z,26.88
2023-05-03T13:29:42.609Z,26.29
2023-05-03T13:32:09.134Z,26.18
2023-05-03T13:34:35.960Z,26.41
2023-05-03T13:37:02.080Z,26.48
2023-05-03T13:39:27.318Z,26.23
2023-05-03T13:41:51.201Z,26.37
2023-05-03T13:44:15.440Z,26.83
2023-05-03T13:47:02.164Z,26.75
2023-05-03T13:49:26.754Z,26.79
2023-05-03T13:51:50.547Z,26.84
2023-05-03T13:53:00.037Z,26.76
2023-05-03T13:56:35.520Z,26.96
2023-05-03T13:59:01.115Z,26.93
2023-05-03T14:01:48.770Z,26.73
2023-05-03T14:04:13.933Z,26.75
2023-05-03T14:06:41.361Z,26.76
2023-05-03T14:09:07.878Z,26.85
2023-05-03T14:11:34.041Z,27.29
2023-05-03T14:14:00.961Z,27.59
2023-05-03T14:20:08.020Z,27.32
2023-05-03T14:22:36.702Z,27.50
2023-05-03T14:25:07.916Z,27.34
2023-05-03T14:27:33.352Z,27.06
2023-05-03T14:30:00.793Z,27.06
2023-05-03T14:32:27.260Z,26.96
2023-05-03T14:36:09.795Z,27.13
2023-05-03T14:37:20.717Z,27.16
2023-05-03T14:38:31.889Z,27.14
2023-05-03T14:40:56.846Z,27.13
2023-05-03T14:43:22.281Z,26.89
2023-05-03T14:45:47.633Z,26.62
2023-05-03T14:46:59.385Z,26.54
2023-05-03T14:49:26.277Z,26.73
2023-05-03T14:51:51.943Z,26.78
2023-05-03T14:53:02.088Z,26.73
2023-05-03T14:55:27.861Z,26.55
2023-05-03T14:57:54.330Z,26.61
2023-05-03T15:00:22.225Z,26.51
2023-05-03T15:02:50.132Z,26.82
2023-05-03T15:05:14.812Z,27.12
2023-05-03T15:07:48.339Z,27.51
2023-05-03T15:08:59.907Z,27.52
2023-05-03T15:11:28.161Z,27.76
2023-05-03T15:12:40.989Z,27.91
2023-05-03T15:15:09.350Z,28.16
2023-05-03T15:17:33.505Z,28.63
2023-05-03T15:20:02.116Z,28.78
2023-05-03T15:21:13.414Z,28.81
2023-05-03T15:23:38.070Z,29.02
2023-05-03T15:26:03.996Z,28.96
2023-05-03T15:28:29.121Z,29.04
2023-05-03T15:29:38.574Z,29.10
2023-05-03T15:30:48.329Z,29.12
2023-05-03T15:31:58.266Z,29.21
2023-05-03T15:34:23.025Z,29.39
2023-05-03T15:36:51.477Z,29.59
2023-05-03T15:39:19.974Z,29.40
2023-05-03T15:41:45.266Z,29.38
2023-05-03T15:44:12.117Z,29.31
2023-05-03T15:46:40.041Z,29.51
2023-05-03T15:47:49.595Z,29.48
2023-05-03T15:48:59.272Z,29.51
2023-05-03T15:51:25.068Z,29.54
2023-05-03T15:52:34.953Z,29.80
2023-05-03T15:55:00.944Z,29.71
2023-05-03T15:57:26.733Z,29.81
2023-05-03T15:58:37.391Z,29.78
2023-05-03T15:59:47.429Z,29.76
2023-05-03T16:02:13.984Z,29.77
2023-05-03T16:04:41.444Z,29.90
2023-05-03T16:07:07.319Z,29.89
2023-05-03T16:09:32.212Z,29.97
2023-05-03T16:11:59.398Z,30.09
2023-05-03T16:14:24.811Z,30.08
2023-05-03T16:16:50.386Z,30.13
2023-05-03T16:19:17.461Z,30.23
2023-05-03T16:20:26.757Z,30.26
2023-05-03T16:22:52.574Z,30.34
2023-05-03T16:25:18.172Z,30.47
2023-05-03T16:27:42.478Z,30.43
2023-05-03T16:30:09.415Z,30.45
2023-05-03T16:32:35.887Z,30.57
2023-05-03T16:35:03.496Z,30.58
2023-05-03T16:37:31.584Z,31.06
2023-05-03T16:39:57.117Z,30.93
2023-05-03T16:42:23.212Z,30.94
2023-05-03T16:44:48.147Z,31.00
2023-05-03T16:46:02.385Z,31.03
2023-05-03T16:48:31.568Z,31.16
2023-05-03T16:50:56.593Z,31.44
2023-05-03T16:53:21.200Z,31.59
2023-05-03T16:55:53.612Z,31.79
2023-05-03T16:58:19.303Z,31.98
2023-05-03T17:00:46.090Z,32.12
2023-05-03T17:03:10.347Z,32.17
2023-05-03T17:05:36.043Z,32.05
2023-05-03T17:08:02.914Z,32.19
2023-05-03T17:10:28.391Z,32.13
2023-05-03T17:11:37.215Z,32.14
2023-05-03T17:14:06.739Z,32.08
2023-05-03T17:16:32.458Z,32.10
2023-05-03T17:17:41.344Z,32.21
2023-05-03T17:18:50.867Z,32.19
2023-05-03T17:20:00.419Z,32.29
2023-05-03T17:22:26.049Z,32.43
2023-05-03T17:24:54.794Z,32.57
2023-05-03T17:27:27.226Z,32.78
2023-05-03T17:28:36.991Z,32.66
2023-05-03T17:31:15.311Z,32.83
2023-05-03T17:33:39.195Z,32.84
2023-05-03T17:36:05.269Z,32.78
2023-05-03T17:38:30.544Z,32.99
2023-05-03T17:40:55.217Z,33.17
2023-05-03T17:43:19.880Z,33.23
2023-05-03T17:45:44.117Z,33.40
2023-05-03T17:48:09.714Z,33.69
2023-05-03T17:50:34.829Z,33.79
2023-05-03T17:52:59.370Z,34.39
2023-05-03T17:55:42.898Z,34.49
2023-05-03T17:58:09.036Z,34.67
2023-05-03T18:00:33.553Z,34.76
2023-05-03T18:02:57.420Z,35.15
2023-05-03T18:04:06.493Z,34.77
2023-05-03T18:05:19.654Z,34.67
2023-05-03T18:07:45.958Z,34.65
2023-05-03T18:10:14.117Z,35.08
2023-05-03T18:11:23.889Z,34.86
2023-05-03T18:13:47.510Z,35.41
2023-05-03T18:16:13.412Z,35.81
2023-05-03T18:18:39.413Z,35.54
2023-05-03T18:21:05.389Z,35.80
2023-05-03T18:22:14.771Z,35.65
2023-05-03T18:24:40.390Z,35.67
2023-05-03T18:27:07.526Z,37.30
2023-05-03T18:29:34.159Z,40.45
2023-05-03T18:31:57.872Z,41.46
2023-05-03T18:34:23.293Z,43.18
2023-05-03T18:35:32.952Z,44.01
2023-05-03T18:37:58.189Z,45.40
2023-05-03T18:40:24.696Z,45.99
2023-05-03T18:41:33.330Z,46.35
2023-05-03T18:43:58.927Z,47.87
2023-05-03T18:46:26.776Z,49.22
2023-05-03T18:47:36.982Z,49.21
2023-05-03T18:50:03.738Z,49.99
2023-05-03T18:52:28.931Z,49.74
2023-05-03T18:54:52.438Z,50.49
2023-05-03T18:57:19.566Z,50.29
2023-05-03T18:59:59.493Z,50.88
2023-05-03T19:01:00.234Z,51.42
2023-05-03T19:02:10.317Z,51.18
2023-05-03T19:03:18.955Z,51.37
2023-05-03T19:04:28.857Z,51.29
2023-05-03T19:06:52.903Z,52.52
2023-05-03T19:09:16.864Z,53.80
2023-05-03T19:11:43.185Z,54.27
2023-05-03T19:14:08.806Z,54.84
2023-05-03T19:15:18.568Z,54.70
2023-05-03T19:17:42.918Z,54.92
2023-05-03T19:20:08.740Z,54.43
2023-05-03T19:22:34.547Z,54.24
2023-05-03T19:23:44.882Z,53.95
2023-05-03T19:26:08.533Z,55.44
2023-05-03T19:28:33.151Z,55.96
2023-05-03T19:30:57.618Z,56.10
2023-05-03T19:33:23.269Z,56.04
2023-05-03T19:34:35.813Z,56.19
2023-05-03T19:37:00.368Z,56.21
2023-05-03T19:39:24.978Z,56.09
2023-05-03T19:40:33.945Z,56.40
2023-05-03T19:42:59.602Z,55.74
2023-05-03T19:44:09.589Z,55.89
2023-05-03T19:45:20.499Z,55.74
2023-05-03T19:47:46.092Z,55.84
2023-05-03T19:50:10.042Z,56.37
2023-05-03T19:51:18.650Z,56.45
2023-05-03T19:53:44.438Z,56.66
2023-05-03T19:56:14.729Z,56.61
2023-05-03T19:58:38.642Z,56.81
2023-05-03T20:01:04.539Z,57.56
2023-05-03T20:02:14.357Z,57.52
2023-05-03T20:03:24.475Z,57.27
2023-05-03T20:04:33.635Z,57.03
2023-05-03T20:05:42.859Z,56.93
2023-05-03T20:06:51.715Z,56.69
2023-05-03T20:09:17.963Z,56.51
2023-05-03T20:11:42.594Z,57.45
2023-05-03T20:12:53.115Z,57.71
2023-05-03T20:15:17.519Z,57.95
2023-05-03T20:17:45.328Z,58.42
2023-05-03T20:20:10.665Z,58.28
2023-05-03T20:22:34.117Z,58.32
2023-05-03T20:24:59.019Z,58.69
2023-05-03T20:27:23.205Z,59.01
2023-05-03T20:29:49.647Z,59.74
2023-05-03T20:32:13.732Z,59.97
2023-05-03T20:33:22.821Z,60.18
2023-05-03T20:35:49.069Z,60.03
2023-05-03T20:38:15.603Z,59.71
2023-05-03T20:40:41.388Z,59.48
2023-05-03T20:43:06.214Z,59.09
2023-05-03T20:45:30.900Z,58.70
2023-05-03T20:46:40.767Z,58.49
2023-05-03T20:49:04.713Z,59.16
2023-05-03T20:50:15.161Z,59.03
2023-05-03T20:51:25.382Z,59.05
2023-05-03T20:52:35.352Z,59.43
2023-05-03T20:54:59.883Z,59.90
2023-05-03T20:56:09.872Z,59.80
2023-05-03T20:58:35.872Z,60.09
2023-05-03T21:01:07.299Z,61.15
2023-05-03T21:03:52.000Z,61.28
2023-05-03T21:06:16.452Z,61.90
2023-05-03T21:07:25.994Z,62.18
2023-05-03T21:08:35.648Z,61.96
2023-05-03T21:10:59.541Z,62.17
2023-05-03T21:13:24.059Z,61.66
2023-05-03T21:15:48.566Z,61.83
2023-05-03T21:18:12.565Z,62.32
2023-05-03T21:20:38.443Z,62.05
2023-05-03T21:21:48.524Z,61.90
2023-05-03T21:22:58.374Z,61.95
2023-05-03T21:24:08.641Z,61.81
2023-05-03T21:26:34.539Z,61.82
2023-05-03T21:29:00.044Z,61.88
2023-05-03T21:31:26.662Z,61.91
2023-05-03T21:32:36.806Z,62.68
2023-05-03T21:33:46.629Z,62.94
2023-05-03T21:36:12.685Z,62.61
2023-05-03T21:38:37.474Z,62.81
2023-05-03T21:39:58.010Z,62.95
2023-05-03T21:42:23.467Z,63.63
2023-05-03T21:43:35.878Z,63.45
2023-05-03T21:46:09.314Z,63.83
2023-05-03T21:48:34.284Z,63.67
2023-05-03T21:50:59.756Z,63.87
2023-05-03T21:53:24.565Z,64.41
2023-05-03T21:55:48.382Z,64.65
2023-05-03T21:58:13.996Z,64.62
2023-05-03T22:00:41.991Z,64.44
2023-05-03T22:01:51.780Z,64.21
2023-05-03T22:04:15.297Z,64.27
2023-05-03T22:06:38.844Z,64.55
2023-05-03T22:09:07.181Z,64.68
2023-05-03T22:11:32.711Z,64.91
2023-05-03T22:14:07.345Z,64.74
2023-05-03T22:16:26.376Z,64.91
2023-05-03T22:18:52.646Z,65.11
2023-05-03T22:20:03.197Z,65.07
2023-05-03T22:21:12.463Z,65.71
2023-05-03T22:23:38.920Z,65.62
2023-05-03T22:26:03.979Z,65.86
2023-05-03T22:28:28.204Z,65.69
2023-05-03T22:31:13.643Z,66.24
2023-05-03T22:33:37.117Z,66.07
2023-05-03T22:36:03.070Z,65.83
2023-05-03T22:38:27.251Z,65.84
2023-05-03T22:40:52.171Z,65.09
2023-05-03T22:43:18.026Z,65.58
2023-05-03T22:44:27.833Z,65.40
2023-05-03T22:46:51.885Z,65.80
2023-05-03T22:49:17.647Z,67.21
2023-05-03T22:50:27.351Z,67.50
2023-05-03T22:51:38.102Z,67.53
2023-05-03T22:54:02.489Z,67.40
2023-05-03T22:55:13.276Z,67.35
2023-05-03T22:57:38.065Z,66.65
2023-05-03T22:58:48.424Z,66.31
2023-05-03T22:59:57.611Z,66.63
2023-05-03T23:02:47.280Z,67.76
2023-05-03T23:05:12.109Z,68.14
2023-05-03T23:07:36.413Z,68.71
2023-05-03T23:08:45.480Z,68.89
2023-05-03T23:11:18.803Z,68.94
2023-05-03T23:13:43.509Z,68.87
2023-05-03T23:16:08.873Z,68.70
2023-05-03T23:18:34.210Z,69.31
2023-05-03T23:20:58.202Z,69.64
2023-05-03T23:23:22.338Z,69.33
2023-05-03T23:24:31.484Z,69.07
2023-05-03T23:26:57.713Z,69.45
2023-05-03T23:29:23.732Z,70.33
2023-05-03T23:30:33.446Z,70.34
2023-05-03T23:32:57.277Z,70.25
2023-05-03T23:34:08.811Z,70.10
2023-05-03T23:35:19.656Z,69.59
2023-05-03T23:37:44.469Z,68.76
2023-05-03T23:40:10.189Z,68.96
2023-05-03T23:42:33.849Z,69.11
2023-05-03T23:44:58.116Z,68.85
2023-05-03T23:47:22.880Z,69.23
2023-05-03T23:49:47.066Z,69.46
2023-05-03T23:52:12.496Z,69.82
2023-05-03T23:54:37.118Z,70.07
2023-05-03T23:55:47.456Z,70.16
2023-05-03T23:56:57.801Z,70.09
2023-05-03T23:58:09.349Z,69.96
2023-05-03T23:59:17.820Z,69.75
